sensor_id;sensor_type;location;lat;lon;timestamp;pressure;altitude;pressure_sealevel;temperature;humidity
58690;BME280;44470;53.206;-6.106;2023-04-28T00:00:46;100650.63;;;27.99;31.56
58690;BME280;44470;53.206;-6.106;2023-04-28T00:03:12;100656.81;;;28.02;31.09
58690;BME280;44470;53.206;-6.106;2023-04-28T00:05:37;100639.53;;;27.88;31.28
58690;BME280;44470;53.206;-6.106;2023-04-28T00:08:03;100674.72;;;28.04;31.41
58690;BME280;44470;53.206;-6.106;2023-04-28T00:10:32;100663.28;;;27.99;31.36
58690;BME280;44470;53.206;-6.106;2023-04-28T00:12:58;100653.16;;;28.03;31.25
58690;BME280;44470;53.206;-6.106;2023-04-28T00:15:24;100664.06;;;28.01;31.29
58690;BME280;44470;53.206;-6.106;2023-04-28T00:17:49;100601.13;;;27.65;31.33
58690;BME280;44470;53.206;-6.106;2023-04-28T00:20:15;100663.13;;;28.02;31.64
58690;BME280;44470;53.206;-6.106;2023-04-28T00:22:40;100658.56;;;28.03;31.37
58690;BME280;44470;53.206;-6.106;2023-04-28T00:25:06;100573.78;;;27.54;31.17
58690;BME280;44470;53.206;-6.106;2023-04-28T00:27:33;100652.81;;;28.09;31.53
58690;BME280;44470;53.206;-6.106;2023-04-28T00:30:01;100656.63;;;28.05;31.65
58690;BME280;44470;53.206;-6.106;2023-04-28T00:32:27;100625.31;;;28.00;31.32
58690;BME280;44470;53.206;-6.106;2023-04-28T00:34:52;100646.28;;;28.13;31.02
58690;BME280;44470;53.206;-6.106;2023-04-28T00:37:19;100645.50;;;28.11;31.29
58690;BME280;44470;53.206;-6.106;2023-04-28T00:39:44;100644.69;;;28.09;31.69
58690;BME280;44470;53.206;-6.106;2023-04-28T00:42:14;100640.25;;;28.08;31.39
58690;BME280;44470;53.206;-6.106;2023-04-28T00:44:39;100647.09;;;28.15;31.37
58690;BME280;44470;53.206;-6.106;2023-04-28T00:47:07;100616.06;;;27.89;31.42
58690;BME280;44470;53.206;-6.106;2023-04-28T00:49:35;100649.00;;;28.13;31.46
58690;BME280;44470;53.206;-6.106;2023-04-28T00:52:04;100652.53;;;28.15;31.32
58690;BME280;44470;53.206;-6.106;2023-04-28T00:54:31;100613.28;;;27.90;31.01
58690;BME280;44470;53.206;-6.106;2023-04-28T00:56:57;100661.50;;;28.16;31.49
58690;BME280;44470;53.206;-6.106;2023-04-28T00:59:23;100653.47;;;28.14;31.23
58690;BME280;44470;53.206;-6.106;2023-04-28T01:01:48;100653.31;;;28.17;31.03
58690;BME280;44470;53.206;-6.106;2023-04-28T01:04:17;100652.53;;;28.15;31.26
58690;BME280;44470;53.206;-6.106;2023-04-28T01:06:44;100653.31;;;28.17;31.16
58690;BME280;44470;53.206;-6.106;2023-04-28T01:09:11;100640.41;;;28.05;31.24
58690;BME280;44470;53.206;-6.106;2023-04-28T01:11:36;100589.44;;;27.81;31.40
58690;BME280;44470;53.206;-6.106;2023-04-28T01:14:02;100658.44;;;28.22;31.46
58690;BME280;44470;53.206;-6.106;2023-04-28T01:16:33;100642.94;;;28.08;30.97
58690;BME280;44470;53.206;-6.106;2023-04-28T01:18:59;100650.78;;;28.14;31.25
58690;BME280;44470;53.206;-6.106;2023-04-28T01:21:32;100650.91;;;28.11;31.22
58690;BME280;44470;53.206;-6.106;2023-04-28T01:24:05;100622.59;;;28.00;31.18
58690;BME280;44470;53.206;-6.106;2023-04-28T01:26:30;100652.34;;;28.18;31.45
58690;BME280;44470;53.206;-6.106;2023-04-28T01:28:56;100663.06;;;28.20;31.08
58690;BME280;44470;53.206;-6.106;2023-04-28T01:31:22;100668.41;;;28.21;31.34
58690;BME280;44470;53.206;-6.106;2023-04-28T01:33:47;100647.56;;;28.06;31.46
58690;BME280;44470;53.206;-6.106;2023-04-28T01:36:14;100647.91;;;27.99;31.31
58690;BME280;44470;53.206;-6.106;2023-04-28T01:38:42;100692.47;;;28.26;31.02
58690;BME280;44470;53.206;-6.106;2023-04-28T01:41:07;100697.03;;;28.25;31.30
58690;BME280;44470;53.206;-6.106;2023-04-28T01:43:33;100695.13;;;28.27;31.09
58690;BME280;44470;53.206;-6.106;2023-04-28T01:45:58;100696.75;;;28.30;31.51
58690;BME280;44470;53.206;-6.106;2023-04-28T01:48:24;100694.06;;;28.30;31.21
58690;BME280;44470;53.206;-6.106;2023-04-28T01:50:49;100693.19;;;28.30;31.19
58690;BME280;44470;53.206;-6.106;2023-04-28T01:53:15;100692.41;;;28.27;31.37
58690;BME280;44470;53.206;-6.106;2023-04-28T01:55:45;100695.91;;;28.30;31.24
58690;BME280;44470;53.206;-6.106;2023-04-28T01:58:11;100691.44;;;28.28;31.60
58690;BME280;44470;53.206;-6.106;2023-04-28T02:00:37;100668.75;;;28.15;31.29
58690;BME280;44470;53.206;-6.106;2023-04-28T02:03:02;100696.69;;;28.32;31.54
58690;BME280;44470;53.206;-6.106;2023-04-28T02:05:27;100626.00;;;27.88;31.36
58690;BME280;44470;53.206;-6.106;2023-04-28T02:07:53;100676.75;;;28.17;31.45
58690;BME280;44470;53.206;-6.106;2023-04-28T02:10:19;100708.38;;;28.32;31.38
58690;BME280;44470;53.206;-6.106;2023-04-28T02:12:44;100699.41;;;28.32;31.67
58690;BME280;44470;53.206;-6.106;2023-04-28T02:15:10;100697.72;;;28.29;31.47
58690;BME280;44470;53.206;-6.106;2023-04-28T02:17:35;100655.41;;;27.94;31.38
58690;BME280;44470;53.206;-6.106;2023-04-28T02:20:01;100709.44;;;28.30;31.15
58690;BME280;44470;53.206;-6.106;2023-04-28T02:22:26;100627.13;;;27.84;31.36
58690;BME280;44470;53.206;-6.106;2023-04-28T02:24:52;100701.38;;;28.28;31.67
58690;BME280;44470;53.206;-6.106;2023-04-28T02:27:17;100704.38;;;28.23;31.72
58690;BME280;44470;53.206;-6.106;2023-04-28T02:29:43;100716.16;;;28.22;31.67
58690;BME280;44470;53.206;-6.106;2023-04-28T02:32:08;100706.28;;;28.21;31.71
58690;BME280;44470;53.206;-6.106;2023-04-28T02:34:34;100703.75;;;28.18;31.31
58690;BME280;44470;53.206;-6.106;2023-04-28T02:37:00;100717.72;;;28.26;31.45
58690;BME280;44470;53.206;-6.106;2023-04-28T02:39:26;100692.59;;;28.07;31.60
58690;BME280;44470;53.206;-6.106;2023-04-28T02:41:54;100723.31;;;28.23;31.45
58690;BME280;44470;53.206;-6.106;2023-04-28T02:44:21;100702.09;;;28.16;31.25
58690;BME280;44470;53.206;-6.106;2023-04-28T02:46:46;100729.56;;;28.24;31.49
58690;BME280;44470;53.206;-6.106;2023-04-28T02:49:12;100727.75;;;28.24;31.25
58690;BME280;44470;53.206;-6.106;2023-04-28T02:51:38;100731.16;;;28.28;31.37
58690;BME280;44470;53.206;-6.106;2023-04-28T02:54:04;100734.03;;;28.25;31.48
58690;BME280;44470;53.206;-6.106;2023-04-28T02:56:30;100721.56;;;28.22;31.34
58690;BME280;44470;53.206;-6.106;2023-04-28T02:58:56;100738.41;;;28.27;31.60
58690;BME280;44470;53.206;-6.106;2023-04-28T03:01:22;100732.03;;;28.28;31.18
58690;BME280;44470;53.206;-6.106;2023-04-28T03:03:48;100738.25;;;28.31;31.14
58690;BME280;44470;53.206;-6.106;2023-04-28T03:06:13;100732.22;;;28.25;31.17
58690;BME280;44470;53.206;-6.106;2023-04-28T03:08:39;100739.38;;;28.26;31.58
58690;BME280;44470;53.206;-6.106;2023-04-28T03:11:04;100712.09;;;28.13;31.33
58690;BME280;44470;53.206;-6.106;2023-04-28T03:13:30;100754.47;;;28.31;31.27
58690;BME280;44470;53.206;-6.106;2023-04-28T03:15:56;100714.16;;;28.08;31.46
58690;BME280;44470;53.206;-6.106;2023-04-28T03:18:21;100747.38;;;28.28;31.41
58690;BME280;44470;53.206;-6.106;2023-04-28T03:20:48;100751.94;;;28.27;31.25
58690;BME280;44470;53.206;-6.106;2023-04-28T03:23:13;100758.84;;;28.33;31.35
58690;BME280;44470;53.206;-6.106;2023-04-28T03:25:39;100740.50;;;28.22;31.27
58690;BME280;44470;53.206;-6.106;2023-04-28T03:28:05;100759.09;;;28.28;31.28
58690;BME280;44470;53.206;-6.106;2023-04-28T03:30:30;100751.59;;;28.34;31.26
58690;BME280;44470;53.206;-6.106;2023-04-28T03:32:56;100757.97;;;28.33;31.38
58690;BME280;44470;53.206;-6.106;2023-04-28T03:35:25;100747.50;;;28.26;31.09
58690;BME280;44470;53.206;-6.106;2023-04-28T03:37:50;100730.16;;;28.13;31.53
58690;BME280;44470;53.206;-6.106;2023-04-28T03:40:16;100735.44;;;28.16;31.22
58690;BME280;44470;53.206;-6.106;2023-04-28T03:43:11;100778.66;;;28.34;31.58
58690;BME280;44470;53.206;-6.106;2023-04-28T03:45:42;100784.88;;;28.36;31.18
58690;BME280;44470;53.206;-6.106;2023-04-28T03:48:07;100761.97;;;28.25;31.51
58690;BME280;44470;53.206;-6.106;2023-04-28T03:50:33;100780.47;;;28.33;31.38
58690;BME280;44470;53.206;-6.106;2023-04-28T03:52:59;100781.38;;;28.34;31.10
58690;BME280;44470;53.206;-6.106;2023-04-28T03:55:25;100781.38;;;28.34;31.22
58690;BME280;44470;53.206;-6.106;2023-04-28T03:57:51;100787.66;;;28.34;31.36
58690;BME280;44470;53.206;-6.106;2023-04-28T04:00:17;100776.31;;;28.27;31.21
58690;BME280;44470;53.206;-6.106;2023-04-28T04:02:45;100792.03;;;28.37;31.31
58690;BME280;44470;53.206;-6.106;2023-04-28T04:05:11;100757.88;;;28.18;31.38
58690;BME280;44470;53.206;-6.106;2023-04-28T04:07:36;100782.16;;;28.36;31.18
58690;BME280;44470;53.206;-6.106;2023-04-28T04:10:02;100764.34;;;28.32;31.37
58690;BME280;44470;53.206;-6.106;2023-04-28T04:12:28;100781.19;;;28.37;31.44
58690;BME280;44470;53.206;-6.106;2023-04-28T04:14:53;100788.38;;;28.38;31.43
58690;BME280;44470;53.206;-6.106;2023-04-28T04:17:25;100775.97;;;28.34;31.62
58690;BME280;44470;53.206;-6.106;2023-04-28T04:19:52;100769.16;;;28.26;31.17
58690;BME280;44470;53.206;-6.106;2023-04-28T04:22:17;100784.09;;;28.34;31.51
58690;BME280;44470;53.206;-6.106;2023-04-28T04:24:43;100786.63;;;28.37;31.38
58690;BME280;44470;53.206;-6.106;2023-04-28T04:27:08;100766.00;;;28.18;31.50
58690;BME280;44470;53.206;-6.106;2023-04-28T04:29:37;100765.03;;;28.19;31.67
58690;BME280;44470;53.206;-6.106;2023-04-28T04:32:09;100757.09;;;28.16;31.32
58690;BME280;44470;53.206;-6.106;2023-04-28T04:34:35;100793.94;;;28.35;31.18
58690;BME280;44470;53.206;-6.106;2023-04-28T04:37:01;100796.47;;;28.38;31.55
58690;BME280;44470;53.206;-6.106;2023-04-28T04:39:27;100793.78;;;28.38;31.44
58690;BME280;44470;53.206;-6.106;2023-04-28T04:41:52;100793.22;;;28.31;31.61
58690;BME280;44470;53.206;-6.106;2023-04-28T04:44:47;100804.59;;;28.38;31.60
58690;BME280;44470;53.206;-6.106;2023-04-28T04:47:32;100812.56;;;28.41;31.08
58690;BME280;44470;53.206;-6.106;2023-04-28T04:49:58;100810.81;;;28.40;31.48
58690;BME280;44470;53.206;-6.106;2023-04-28T04:52:24;100806.53;;;28.36;31.37
58690;BME280;44470;53.206;-6.106;2023-04-28T04:54:50;100817.19;;;28.39;31.58
58690;BME280;44470;53.206;-6.106;2023-04-28T04:57:16;100808.09;;;28.40;31.65
58690;BME280;44470;53.206;-6.106;2023-04-28T05:00:06;100796.19;;;28.26;31.35
58690;BME280;44470;53.206;-6.106;2023-04-28T05:02:31;100821.47;;;28.43;31.07
58690;BME280;44470;53.206;-6.106;2023-04-28T05:04:58;100823.16;;;28.46;31.07
58690;BME280;44470;53.206;-6.106;2023-04-28T05:07:24;100829.59;;;28.43;31.06
58690;BME280;44470;53.206;-6.106;2023-04-28T05:09:51;100823.22;;;28.44;31.58
58690;BME280;44470;53.206;-6.106;2023-04-28T05:12:16;100830.38;;;28.45;31.37
58690;BME280;44470;53.206;-6.106;2023-04-28T05:14:42;100833.97;;;28.46;31.19
58690;BME280;44470;53.206;-6.106;2023-04-28T05:17:08;100811.22;;;28.32;31.36
58690;BME280;44470;53.206;-6.106;2023-04-28T05:19:36;100842.09;;;28.46;31.39
58690;BME280;44470;53.206;-6.106;2023-04-28T05:22:02;100836.75;;;28.44;31.28
58690;BME280;44470;53.206;-6.106;2023-04-28T05:24:28;100845.66;;;28.46;31.37
58690;BME280;44470;53.206;-6.106;2023-04-28T05:26:57;100845.81;;;28.43;31.26
58690;BME280;44470;53.206;-6.106;2023-04-28T05:29:23;100851.97;;;28.47;31.19
58690;BME280;44470;53.206;-6.106;2023-04-28T05:31:48;100853.88;;;28.45;31.28
58690;BME280;44470;53.206;-6.106;2023-04-28T05:34:14;100829.38;;;28.30;31.38
58690;BME280;44470;53.206;-6.106;2023-04-28T05:36:40;100866.47;;;28.46;31.33
58690;BME280;44470;53.206;-6.106;2023-04-28T05:39:09;100868.09;;;28.48;31.29
58690;BME280;44470;53.206;-6.106;2023-04-28T05:41:36;100872.66;;;28.48;31.02
58690;BME280;44470;53.206;-6.106;2023-04-28T05:44:02;100873.63;;;28.47;31.33
58690;BME280;44470;53.206;-6.106;2023-04-28T05:46:28;100877.28;;;28.46;31.28
58690;BME280;44470;53.206;-6.106;2023-04-28T05:48:53;100883.56;;;28.46;31.41
58690;BME280;44470;53.206;-6.106;2023-04-28T05:51:19;100885.31;;;28.47;31.24
58690;BME280;44470;53.206;-6.106;2023-04-28T05:53:44;100889.75;;;28.48;31.25
58690;BME280;44470;53.206;-6.106;2023-04-28T05:56:14;100861.00;;;28.30;31.62
58690;BME280;44470;53.206;-6.106;2023-04-28T05:58:41;100861.00;;;28.30;31.24
58690;BME280;44470;53.206;-6.106;2023-04-28T06:01:09;100888.28;;;28.42;31.63
58690;BME280;44470;53.206;-6.106;2023-04-28T06:03:37;100904.25;;;28.47;31.61
58690;BME280;44470;53.206;-6.106;2023-04-28T06:06:05;100898.66;;;28.50;31.17
58690;BME280;44470;53.206;-6.106;2023-04-28T06:08:31;100874.97;;;28.38;31.33
58690;BME280;44470;53.206;-6.106;2023-04-28T06:10:56;100897.81;;;28.50;31.27
58690;BME280;44470;53.206;-6.106;2023-04-28T06:13:22;100871.81;;;28.30;31.33
58690;BME280;44470;53.206;-6.106;2023-04-28T06:15:47;100867.59;;;28.24;31.34
58690;BME280;44470;53.206;-6.106;2023-04-28T06:18:13;100910.00;;;28.41;31.18
58690;BME280;44470;53.206;-6.106;2023-04-28T06:20:41;100886.13;;;28.32;31.62
58690;BME280;44470;53.206;-6.106;2023-04-28T06:23:07;100896.97;;;28.32;31.48
58690;BME280;44470;53.206;-6.106;2023-04-28T06:25:35;100926.53;;;28.52;31.30
58690;BME280;44470;53.206;-6.106;2023-04-28T06:28:01;100932.06;;;28.51;31.51
58690;BME280;44470;53.206;-6.106;2023-04-28T06:30:27;100930.19;;;28.51;31.50
58690;BME280;44470;53.206;-6.106;2023-04-28T06:32:53;100936.69;;;28.49;31.39
58690;BME280;44470;53.206;-6.106;2023-04-28T06:35:20;100877.00;;;28.17;31.44
58690;BME280;44470;53.206;-6.106;2023-04-28T06:37:46;100934.59;;;28.54;31.36
58690;BME280;44470;53.206;-6.106;2023-04-28T06:40:13;100937.38;;;28.52;31.47
58690;BME280;44470;53.206;-6.106;2023-04-28T06:42:44;100937.38;;;28.52;31.25
58690;BME280;44470;53.206;-6.106;2023-04-28T06:45:15;100950.84;;;28.54;31.35
58690;BME280;44470;53.206;-6.106;2023-04-28T06:47:40;100949.09;;;28.53;31.34
58690;BME280;44470;53.206;-6.106;2023-04-28T06:50:07;100932.44;;;28.43;31.61
58690;BME280;44470;53.206;-6.106;2023-04-28T06:52:34;100865.13;;;28.02;31.46
58690;BME280;44470;53.206;-6.106;2023-04-28T06:55:00;100957.09;;;28.54;31.29
58690;BME280;44470;53.206;-6.106;2023-04-28T06:57:25;100961.66;;;28.54;31.63
58690;BME280;44470;53.206;-6.106;2023-04-28T06:59:53;100964.38;;;28.54;31.49
58690;BME280;44470;53.206;-6.106;2023-04-28T07:02:18;100959.03;;;28.52;31.47
58690;BME280;44470;53.206;-6.106;2023-04-28T07:04:44;100969.69;;;28.55;31.48
58690;BME280;44470;53.206;-6.106;2023-04-28T07:07:10;100973.19;;;28.57;31.46
58690;BME280;44470;53.206;-6.106;2023-04-28T07:09:36;100971.53;;;28.55;31.40
58690;BME280;44470;53.206;-6.106;2023-04-28T07:12:02;100974.94;;;28.58;31.43
58690;BME280;44470;53.206;-6.106;2023-04-28T07:14:28;100972.34;;;28.57;31.47
58690;BME280;44470;53.206;-6.106;2023-04-28T07:16:54;100974.09;;;28.58;31.39
58690;BME280;44470;53.206;-6.106;2023-04-28T07:19:19;100974.94;;;28.58;31.25
58690;BME280;44470;53.206;-6.106;2023-04-28T07:21:45;100976.00;;;28.56;31.33
58690;BME280;44470;53.206;-6.106;2023-04-28T07:24:10;100980.34;;;28.58;31.61
58690;BME280;44470;53.206;-6.106;2023-04-28T07:26:36;100901.72;;;28.09;31.53
58690;BME280;44470;53.206;-6.106;2023-04-28T07:29:03;100987.63;;;28.58;31.45
58690;BME280;44470;53.206;-6.106;2023-04-28T07:31:28;100987.63;;;28.58;31.47
58690;BME280;44470;53.206;-6.106;2023-04-28T07:33:54;100986.72;;;28.57;31.64
58690;BME280;44470;53.206;-6.106;2023-04-28T07:36:20;100992.09;;;28.59;31.70
58690;BME280;44470;53.206;-6.106;2023-04-28T07:38:45;100972.25;;;28.41;31.66
58690;BME280;44470;53.206;-6.106;2023-04-28T07:41:11;101005.38;;;28.64;31.34
58690;BME280;44470;53.206;-6.106;2023-04-28T07:43:38;100987.78;;;28.55;31.68
58690;BME280;44470;53.206;-6.106;2023-04-28T07:46:05;101018.09;;;28.62;31.56
58690;BME280;44470;53.206;-6.106;2023-04-28T07:48:30;101018.94;;;28.64;31.64
58690;BME280;44470;53.206;-6.106;2023-04-28T07:50:56;100987.53;;;28.42;31.64
58690;BME280;44470;53.206;-6.106;2023-04-28T07:53:22;101025.44;;;28.60;31.63
58690;BME280;44470;53.206;-6.106;2023-04-28T07:55:47;101028.13;;;28.60;31.58
58690;BME280;44470;53.206;-6.106;2023-04-28T07:58:13;101029.88;;;28.61;31.52
58690;BME280;44470;53.206;-6.106;2023-04-28T08:00:38;101015.09;;;28.50;31.63
58690;BME280;44470;53.206;-6.106;2023-04-28T08:03:03;101008.25;;;28.43;31.66
58690;BME280;44470;53.206;-6.106;2023-04-28T08:05:29;101019.47;;;28.53;31.49
58690;BME280;44470;53.206;-6.106;2023-04-28T08:07:55;101045.13;;;28.63;31.65
58690;BME280;44470;53.206;-6.106;2023-04-28T08:10:27;101047.59;;;28.68;31.66
58690;BME280;44470;53.206;-6.106;2023-04-28T08:12:53;101042.34;;;28.65;31.56
58690;BME280;44470;53.206;-6.106;2023-04-28T08:15:18;101052.22;;;28.66;31.67
58690;BME280;44470;53.206;-6.106;2023-04-28T08:17:44;101048.78;;;28.62;32.38
58690;BME280;44470;53.206;-6.106;2023-04-28T08:20:10;101057.53;;;28.67;32.33
58690;BME280;44470;53.206;-6.106;2023-04-28T08:22:35;101064.47;;;28.73;32.80
58690;BME280;44470;53.206;-6.106;2023-04-28T08:25:01;101063.34;;;28.77;32.54
58690;BME280;44470;53.206;-6.106;2023-04-28T08:27:26;101036.44;;;28.56;32.86
58690;BME280;44470;53.206;-6.106;2023-04-28T08:29:52;101074.19;;;28.77;32.95
58690;BME280;44470;53.206;-6.106;2023-04-28T08:32:18;101070.69;;;28.75;32.66
58690;BME280;44470;53.206;-6.106;2023-04-28T08:34:43;101067.97;;;28.75;32.85
58690;BME280;44470;53.206;-6.106;2023-04-28T08:37:09;101073.56;;;28.72;33.01
58690;BME280;44470;53.206;-6.106;2023-04-28T08:39:35;101042.00;;;28.53;32.73
58690;BME280;44470;53.206;-6.106;2023-04-28T08:42:04;101066.56;;;28.68;32.82
58690;BME280;44470;53.206;-6.106;2023-04-28T08:44:37;101079.13;;;28.69;32.58
58690;BME280;44470;53.206;-6.106;2023-04-28T08:47:11;101090.78;;;28.71;32.47
58690;BME280;44470;53.206;-6.106;2023-04-28T08:49:37;101084.56;;;28.69;32.70
58690;BME280;44470;53.206;-6.106;2023-04-28T08:52:09;101074.97;;;28.62;32.57
58690;BME280;44470;53.206;-6.106;2023-04-28T08:54:37;101088.22;;;28.68;32.51
58690;BME280;44470;53.206;-6.106;2023-04-28T08:57:03;101093.47;;;28.71;32.64
58690;BME280;44470;53.206;-6.106;2023-04-28T08:59:30;101089.88;;;28.70;32.73
58690;BME280;44470;53.206;-6.106;2023-04-28T09:01:55;101091.78;;;28.68;32.24
58690;BME280;44470;53.206;-6.106;2023-04-28T09:04:21;101033.88;;;28.36;32.74
58690;BME280;44470;53.206;-6.106;2023-04-28T09:06:46;101082.00;;;28.66;32.37
58690;BME280;44470;53.206;-6.106;2023-04-28T09:09:23;101090.94;;;28.68;32.27
58690;BME280;44470;53.206;-6.106;2023-04-28T09:12:07;101084.72;;;28.66;32.40
58690;BME280;44470;53.206;-6.106;2023-04-28T09:14:34;101071.09;;;28.50;32.44
58690;BME280;44470;53.206;-6.106;2023-04-28T09:17:01;101103.50;;;28.69;32.19
58690;BME280;44470;53.206;-6.106;2023-04-28T09:19:34;101112.34;;;28.72;32.31
58690;BME280;44470;53.206;-6.106;2023-04-28T09:22:01;101109.88;;;28.68;32.27
58690;BME280;44470;53.206;-6.106;2023-04-28T09:24:34;101113.38;;;28.70;32.50
58690;BME280;44470;53.206;-6.106;2023-04-28T09:27:25;101111.63;;;28.69;32.33
58690;BME280;44470;53.206;-6.106;2023-04-28T09:29:52;101106.38;;;28.66;32.45
58690;BME280;44470;53.206;-6.106;2023-04-28T09:32:19;101114.41;;;28.67;32.43
58690;BME280;44470;53.206;-6.106;2023-04-28T09:34:47;101117.22;;;28.66;32.53
58690;BME280;44470;53.206;-6.106;2023-04-28T09:37:25;101126.41;;;28.62;32.26
58690;BME280;44470;53.206;-6.106;2023-04-28T09:39:52;101134.31;;;28.66;32.47
58690;BME280;44470;53.206;-6.106;2023-04-28T09:44:57;101133.47;;;28.66;32.20
58690;BME280;44470;53.206;-6.106;2023-04-28T09:47:23;101133.47;;;28.66;32.46
58690;BME280;44470;53.206;-6.106;2023-04-28T09:49:53;101140.78;;;28.64;32.34
58690;BME280;44470;53.206;-6.106;2023-04-28T09:52:20;101135.44;;;28.62;32.17
58690;BME280;44470;53.206;-6.106;2023-04-28T09:54:49;101072.56;;;28.20;32.32
58690;BME280;44470;53.206;-6.106;2023-04-28T09:57:15;101132.78;;;28.61;32.23
58690;BME280;44470;53.206;-6.106;2023-04-28T09:59:46;101155.97;;;28.66;32.20
58690;BME280;44470;53.206;-6.106;2023-04-28T10:02:14;101121.88;;;28.45;32.29
58690;BME280;44470;53.206;-6.106;2023-04-28T10:04:44;101157.03;;;28.64;32.18
58690;BME280;44470;53.206;-6.106;2023-04-28T10:07:14;101158.78;;;28.65;32.39
58690;BME280;44470;53.206;-6.106;2023-04-28T10:09:41;101105.38;;;28.32;32.21
58690;BME280;44470;53.206;-6.106;2023-04-28T10:12:21;101128.09;;;28.47;32.26
58690;BME280;44470;53.206;-6.106;2023-04-28T10:14:48;101116.69;;;28.40;32.24
58690;BME280;44470;53.206;-6.106;2023-04-28T10:17:16;101156.16;;;28.63;32.63
58690;BME280;44470;53.206;-6.106;2023-04-28T10:19:43;101156.31;;;28.60;32.42
58690;BME280;44470;53.206;-6.106;2023-04-28T10:27:44;101160.66;;;28.63;32.36
58690;BME280;44470;53.206;-6.106;2023-04-28T10:30:16;101167.03;;;28.62;32.46
58690;BME280;44470;53.206;-6.106;2023-04-28T10:32:42;101173.41;;;28.61;32.42
58690;BME280;44470;53.206;-6.106;2023-04-28T10:38:34;101188.63;;;28.63;32.65
58690;BME280;44470;53.206;-6.106;2023-04-28T10:41:00;101165.25;;;28.43;32.54
58690;BME280;44470;53.206;-6.106;2023-04-28T10:43:35;101189.66;;;28.61;32.53
58690;BME280;44470;53.206;-6.106;2023-04-28T10:46:04;101197.72;;;28.62;32.34
58690;BME280;44470;53.206;-6.106;2023-04-28T10:56:08;101207.66;;;28.62;32.50
58690;BME280;44470;53.206;-6.106;2023-04-28T10:58:34;101170.97;;;28.37;32.50
58690;BME280;44470;53.206;-6.106;2023-04-28T11:03:49;101203.06;;;28.64;32.44
58690;BME280;44470;53.206;-6.106;2023-04-28T11:06:29;101211.19;;;28.64;32.59
58690;BME280;44470;53.206;-6.106;2023-04-28T11:09:04;101176.09;;;28.43;32.36
58690;BME280;44470;53.206;-6.106;2023-04-28T11:14:30;101216.69;;;28.62;32.66
58690;BME280;44470;53.206;-6.106;2023-04-28T11:17:01;101197.88;;;28.59;32.52
58690;BME280;44470;53.206;-6.106;2023-04-28T11:19:35;101180.50;;;28.46;32.74
58690;BME280;44470;53.206;-6.106;2023-04-28T11:22:13;101217.63;;;28.61;32.63
58690;BME280;44470;53.206;-6.106;2023-04-28T11:24:39;101204.94;;;28.62;32.57
58690;BME280;44470;53.206;-6.106;2023-04-28T11:27:05;101204.94;;;28.62;32.58
58690;BME280;44470;53.206;-6.106;2023-04-28T11:32:06;101219.38;;;28.62;32.57
58690;BME280;44470;53.206;-6.106;2023-04-28T11:34:32;101221.06;;;28.65;32.60
58690;BME280;44470;53.206;-6.106;2023-04-28T11:36:58;101184.22;;;28.43;32.68
58690;BME280;44470;53.206;-6.106;2023-04-28T11:39:30;101222.91;;;28.64;32.51
58690;BME280;44470;53.206;-6.106;2023-04-28T11:42:01;101223.78;;;28.65;32.40
58690;BME280;44470;53.206;-6.106;2023-04-28T11:44:28;101210.31;;;28.63;32.54
58690;BME280;44470;53.206;-6.106;2023-04-28T11:50:01;101185.81;;;28.47;32.48
58690;BME280;44470;53.206;-6.106;2023-04-28T11:52:27;101212.94;;;28.65;32.41
58690;BME280;44470;53.206;-6.106;2023-04-28T11:54:56;101198.88;;;28.56;32.65
58690;BME280;44470;53.206;-6.106;2023-04-28T11:57:24;101222.69;;;28.69;32.69
58690;BME280;44470;53.206;-6.106;2023-04-28T11:59:50;101212.06;;;28.64;32.62
58690;BME280;44470;53.206;-6.106;2023-04-28T12:02:24;101214.81;;;28.63;32.64
58690;BME280;44470;53.206;-6.106;2023-04-28T12:04:50;101233.25;;;28.74;32.61
58690;BME280;44470;53.206;-6.106;2023-04-28T12:07:17;101159.97;;;28.22;32.91
58690;BME280;44470;53.206;-6.106;2023-04-28T12:12:13;101208.41;;;28.46;32.50
58690;BME280;44470;53.206;-6.106;2023-04-28T12:15:00;101244.50;;;28.66;32.59
58690;BME280;44470;53.206;-6.106;2023-04-28T12:17:28;101212.03;;;28.47;32.82
58690;BME280;44470;53.206;-6.106;2023-04-28T12:19:58;101246.41;;;28.64;32.65
58690;BME280;44470;53.206;-6.106;2023-04-28T12:22:24;101255.09;;;28.70;32.57
58690;BME280;44470;53.206;-6.106;2023-04-28T12:25:03;101210.34;;;28.44;32.59
58690;BME280;44470;53.206;-6.106;2023-04-28T12:27:29;101241.78;;;28.66;32.69
58690;BME280;44470;53.206;-6.106;2023-04-28T12:29:56;101233.22;;;28.56;32.53
58690;BME280;44470;53.206;-6.106;2023-04-28T12:32:40;101253.56;;;28.65;32.70
58690;BME280;44470;53.206;-6.106;2023-04-28T12:35:09;101251.88;;;28.62;32.84
58690;BME280;44470;53.206;-6.106;2023-04-28T12:37:34;101256.34;;;28.63;32.69
58690;BME280;44470;53.206;-6.106;2023-04-28T12:40:00;101249.13;;;28.64;32.75
58690;BME280;44470;53.206;-6.106;2023-04-28T12:42:26;101258.91;;;28.66;33.08
58690;BME280;44470;53.206;-6.106;2023-04-28T12:44:53;101264.53;;;28.62;32.68
58690;BME280;44470;53.206;-6.106;2023-04-28T12:47:18;101264.53;;;28.62;32.53
58690;BME280;44470;53.206;-6.106;2023-04-28T12:49:44;101273.47;;;28.64;32.80
58690;BME280;44470;53.206;-6.106;2023-04-28T12:52:11;101277.06;;;28.64;32.65
58690;BME280;44470;53.206;-6.106;2023-04-28T12:54:37;101277.94;;;28.65;32.53
58690;BME280;44470;53.206;-6.106;2023-04-28T12:57:04;101270.09;;;28.58;32.47
58690;BME280;44470;53.206;-6.106;2023-04-28T12:59:30;101280.72;;;28.63;32.66
58690;BME280;44470;53.206;-6.106;2023-04-28T13:01:55;101277.13;;;28.63;32.86
58690;BME280;44470;53.206;-6.106;2023-04-28T13:04:21;101278.81;;;28.65;32.60
58690;BME280;44470;53.206;-6.106;2023-04-28T13:06:47;101258.69;;;28.52;32.77
58690;BME280;44470;53.206;-6.106;2023-04-28T13:09:13;101278.81;;;28.65;32.78
58690;BME280;44470;53.206;-6.106;2023-04-28T13:11:40;101289.63;;;28.65;32.40
58690;BME280;44470;53.206;-6.106;2023-04-28T13:14:05;101285.31;;;28.61;32.54